Time;durP1;ratioP1;P1;durP2;ratioP2;P2;SDS_P1;SDS_P2;PMS_P1;PMS_P2;Temp;Humidity;BMP_temperature;BMP_pressure;BME280_temperature;BME280_humidity;BME280_pressure;Samples;Min_cycle;Max_cycle;Signal;HPM_P1;HPM_P2
2022/03/04 00:02:01;;;;;;;13.60;9.23;;;;;;;8.94;44.71;101860.31;5101430;28;20068;-63
2022/03/04 00:04:33;;;;;;;13.10;8.75;;;;;;;8.92;44.43;101856.97;5103907;28;20048;-62
2022/03/04 00:07:01;;;;;;;17.25;9.23;;;;;;;8.90;44.44;101851.81;5098504;28;20075;-63
2022/03/04 00:09:29;;;;;;;14.95;9.05;;;;;;;8.91;44.82;101861.50;5101826;28;20048;-62
2022/03/04 00:11:57;;;;;;;16.73;8.93;;;;;;;8.88;43.88;101864.56;5101370;28;20063;-62
2022/03/04 00:14:25;;;;;;;13.60;9.23;;;;;;;8.89;44.03;101876.94;5102385;28;20098;-62
2022/03/04 00:16:54;;;;;;;13.77;8.90;;;;;;;8.86;44.21;101882.69;5093840;28;20044;-62
2022/03/04 00:19:22;;;;;;;12.73;8.07;;;;;;;8.80;44.15;101865.47;5102990;28;20058;-62
2022/03/04 00:21:52;;;;;;;13.05;7.97;;;;;;;8.82;44.51;101881.38;5095941;28;20044;-62
2022/03/04 00:24:21;;;;;;;14.13;8.85;;;;;;;8.80;44.02;101880.72;5102986;28;20052;-62
2022/03/04 00:26:50;;;;;;;14.57;9.13;;;;;;;8.69;44.20;101857.91;5102523;28;20056;-62
2022/03/04 00:29:17;;;;;;;13.98;8.40;;;;;;;8.77;44.36;101867.69;5102398;28;20479;-62
2022/03/04 00:31:46;;;;;;;13.48;8.63;;;;;;;8.76;44.88;101879.44;5092517;28;20074;-62
2022/03/04 00:34:14;;;;;;;12.85;8.00;;;;;;;8.72;44.27;101876.28;5102812;28;20056;-64
2022/03/04 00:36:42;;;;;;;14.68;8.93;;;;;;;8.72;44.30;101878.16;5102191;28;20071;-64
2022/03/04 00:39:13;;;;;;;12.85;8.18;;;;;;;8.71;44.05;101873.81;5100853;28;20063;-63
2022/03/04 00:41:41;;;;;;;14.48;9.20;;;;;;;8.69;44.23;101876.66;5102964;28;20079;-63
2022/03/04 00:44:09;;;;;;;14.25;8.18;;;;;;;8.68;44.24;101891.06;5102705;28;20044;-63
2022/03/04 00:46:38;;;;;;;13.18;7.93;;;;;;;8.67;45.04;101888.59;5097931;28;20043;-63
2022/03/04 00:49:06;;;;;;;17.00;9.35;;;;;;;8.64;44.53;101889.81;5100356;28;20044;-63
2022/03/04 00:51:34;;;;;;;14.98;9.70;;;;;;;8.62;44.65;101886.47;5090944;28;20040;-63
2022/03/04 00:54:01;;;;;;;14.98;9.02;;;;;;;8.63;44.69;101887.31;5091248;28;20048;-64
2022/03/04 00:56:31;;;;;;;17.73;8.10;;;;;;;8.62;44.33;101891.00;5100791;28;20048;-62
2022/03/04 00:58:58;;;;;;;13.75;8.50;;;;;;;8.60;44.59;101888.53;5102185;28;20056;-62
2022/03/04 01:01:26;;;;;;;13.43;8.52;;;;;;;8.58;44.43;101887.88;5101592;28;20058;-62
2022/03/04 01:03:54;;;;;;;15.38;8.85;;;;;;;8.57;44.78;101893.41;5100922;28;20052;-62
2022/03/04 01:06:22;;;;;;;14.23;9.13;;;;;;;8.54;45.14;101888.41;5101671;28;20047;-62
2022/03/04 01:08:50;;;;;;;14.40;9.00;;;;;;;8.56;44.33;101894.44;5091826;28;20056;-63
2022/03/04 01:11:18;;;;;;;14.70;9.25;;;;;;;8.51;44.39;101889.63;5102312;28;20052;-63
2022/03/04 01:13:47;;;;;;;12.88;8.38;;;;;;;8.52;44.72;101895.81;5101446;28;20044;-63
2022/03/04 01:16:14;;;;;;;14.88;9.45;;;;;;;8.50;44.27;101887.13;5093268;28;20037;-63
2022/03/04 01:18:42;;;;;;;15.13;9.15;;;;;;;8.51;44.31;101894.13;5096025;28;20107;-63
2022/03/04 01:21:10;;;;;;;14.90;9.98;;;;;;;8.46;44.96;101892.84;5102116;28;20110;-62
2022/03/04 01:23:38;;;;;;;13.63;9.57;;;;;;;8.46;44.39;101892.00;5094534;28;20063;-62
2022/03/04 01:26:06;;;;;;;16.70;10.05;;;;;;;8.46;44.59;101892.00;5101937;28;20079;-62
2022/03/04 01:28:33;;;;;;;16.13;9.82;;;;;;;8.44;44.71;101883.31;5094877;28;20099;-63
2022/03/04 01:31:04;;;;;;;13.88;9.25;;;;;;;8.43;44.85;101884.34;5094739;28;20100;-63
2022/03/04 01:33:31;;;;;;;14.48;9.77;;;;;;;8.42;44.64;101880.00;5101957;28;20051;-62
2022/03/04 01:35:59;;;;;;;17.45;9.88;;;;;;;8.38;44.83;101884.88;5101834;28;20064;-62
2022/03/04 01:38:27;;;;;;;14.90;10.07;;;;;;;8.38;44.52;101887.56;5102250;28;20087;-62
2022/03/04 01:40:55;;;;;;;15.70;9.88;;;;;;;8.37;44.42;101877.03;5102031;28;20079;-63
2022/03/04 01:43:23;;;;;;;15.68;9.00;;;;;;;8.37;44.63;101877.03;5100489;28;20055;-63
2022/03/04 01:45:51;;;;;;;18.10;9.95;;;;;;;8.35;44.70;101865.66;5101265;28;20056;-63
2022/03/04 01:48:21;;;;;;;13.15;9.73;;;;;;;8.33;44.51;101871.19;5101887;28;20044;-63
2022/03/04 01:50:49;;;;;;;15.02;10.07;;;;;;;8.33;44.51;101871.19;5101420;28;20070;-63
2022/03/04 01:53:18;;;;;;;14.93;9.75;;;;;;;8.29;45.35;101875.22;5096927;28;20489;-63
2022/03/04 01:55:46;;;;;;;17.65;10.75;;;;;;;8.29;44.82;101872.56;5101561;28;20047;-63
2022/03/04 01:58:13;;;;;;;13.52;9.27;;;;;;;8.28;44.53;101870.06;5101625;28;20082;-62
2022/03/04 02:00:41;;;;;;;16.90;9.63;;;;;;;8.26;45.33;101872.06;5097059;28;20048;-63
2022/03/04 02:03:11;;;;;;;15.68;9.90;;;;;;;8.25;44.50;101876.59;5097396;28;20086;-63
2022/03/04 02:05:40;;;;;;;14.02;9.25;;;;;;;8.24;45.08;101882.13;5101425;28;20048;-63
2022/03/04 02:08:08;;;;;;;15.05;9.07;;;;;;;8.23;44.52;101886.66;5092035;28;20032;-63
2022/03/04 02:10:36;;;;;;;16.02;10.07;;;;;;;8.22;45.04;101887.69;5101687;28;20059;-63
2022/03/04 02:13:03;;;;;;;17.60;10.07;;;;;;;8.20;45.29;101891.53;5101220;28;20058;-63
2022/03/04 02:15:31;;;;;;;13.43;9.27;;;;;;;8.06;44.58;101861.88;5101162;28;20056;-63
2022/03/04 02:17:59;;;;;;;14.50;9.80;;;;;;;8.16;44.41;101880.38;5088034;28;20051;-63
2022/03/04 02:20:30;;;;;;;16.50;10.40;;;;;;;8.15;44.91;101878.69;5100056;28;20051;-64
2022/03/04 02:22:59;;;;;;;15.77;9.90;;;;;;;8.13;45.01;101880.72;5097829;28;20090;-63
2022/03/04 02:25:27;;;;;;;15.82;9.70;;;;;;;8.10;44.73;101879.25;5101511;28;20072;-64
2022/03/04 02:27:55;;;;;;;16.08;10.70;;;;;;;7.96;45.16;101855.94;5101062;28;20056;-63
2022/03/04 02:30:22;;;;;;;19.17;9.93;;;;;;;8.06;44.93;101875.25;5096232;28;20052;-64
2022/03/04 02:32:50;;;;;;;14.20;9.40;;;;;;;8.08;44.99;101875.06;5101421;28;20048;-63
2022/03/04 02:35:18;;;;;;;21.45;10.05;;;;;;;8.05;44.88;101878.13;5100858;28;20462;-63
2022/03/04 02:37:46;;;;;;;18.70;10.07;;;;;;;8.04;45.23;101871.94;5097311;28;20136;-63
2022/03/04 02:40:15;;;;;;;16.58;10.68;;;;;;;8.02;45.04;101871.28;5100475;28;20081;-63
2022/03/04 02:42:43;;;;;;;17.55;10.13;;;;;;;8.01;44.34;101868.78;5101160;28;20694;-63
2022/03/04 02:45:11;;;;;;;16.77;9.88;;;;;;;7.95;45.22;101851.59;5094958;28;20336;-63
2022/03/04 02:47:38;;;;;;;19.90;10.35;;;;;;;7.98;44.39;101861.94;5101729;28;20113;-62
2022/03/04 02:50:06;;;;;;;17.08;9.88;;;;;;;7.95;45.42;101864.16;5100788;28;20040;-62
2022/03/04 02:52:34;;;;;;;18.08;11.15;;;;;;;7.94;45.04;101863.31;5101709;28;20060;-62
2022/03/04 02:55:02;;;;;;;16.50;10.63;;;;;;;7.94;44.92;101868.66;5104976;28;20076;-62
2022/03/04 02:57:31;;;;;;;16.73;10.82;;;;;;;7.91;45.11;101865.50;5102892;28;20068;-62
2022/03/04 02:59:59;;;;;;;16.48;11.30;;;;;;;7.91;44.94;101862.84;5103719;28;20066;-62
2022/03/04 03:02:26;;;;;;;19.55;10.00;;;;;;;7.89;45.07;101859.50;5105224;28;20157;-61
2022/03/04 03:04:54;;;;;;;16.50;11.00;;;;;;;7.87;45.26;101856.19;5102069;28;20572;-62
2022/03/04 03:07:22;;;;;;;16.83;11.20;;;;;;;7.86;45.14;101857.19;5104067;28;20040;-62
2022/03/04 03:09:50;;;;;;;19.83;10.60;;;;;;;7.84;45.23;101862.72;5101945;28;20059;-62
2022/03/04 03:12:18;;;;;;;17.52;10.65;;;;;;;7.83;44.79;101858.38;5103594;28;20082;-62
2022/03/04 03:14:47;;;;;;;19.10;10.82;;;;;;;7.82;45.44;101865.56;5104131;28;20129;-62
2022/03/04 03:17:15;;;;;;;20.20;11.43;;;;;;;7.81;44.96;101861.25;5101198;28;20048;-63
2022/03/04 03:19:43;;;;;;;17.42;11.80;;;;;;;7.81;45.02;101865.75;5103907;28;20513;-62
2022/03/04 03:22:11;;;;;;;21.65;11.48;;;;;;;7.79;45.19;101863.25;5103241;28;20061;-62
2022/03/04 03:24:38;;;;;;;18.20;11.70;;;;;;;7.78;45.30;101858.09;5101801;28;20087;-62
2022/03/04 03:27:08;;;;;;;18.50;10.57;;;;;;;7.77;45.24;101859.94;5103867;28;20067;-62
2022/03/04 03:29:35;;;;;;;17.25;10.95;;;;;;;7.76;45.40;101863.63;5103887;28;20079;-63
2022/03/04 03:32:05;;;;;;;18.23;11.07;;;;;;;7.75;45.17;101858.44;5101345;28;20047;-63
2022/03/04 03:34:33;;;;;;;16.70;10.63;;;;;;;7.72;45.00;101859.63;5104535;28;20080;-62
2022/03/04 03:37:01;;;;;;;18.52;10.95;;;;;;;7.71;44.97;101857.13;5099341;28;20457;-62
2022/03/04 03:39:28;;;;;;;16.45;10.73;;;;;;;7.70;44.91;101858.97;5103228;28;20055;-62
2022/03/04 03:41:56;;;;;;;16.85;10.68;;;;;;;7.69;44.68;101867.19;5101745;28;20070;-62
2022/03/04 03:44:24;;;;;;;17.33;10.85;;;;;;;7.69;45.38;101862.66;5098349;28;20071;-62
2022/03/04 03:46:52;;;;;;;16.33;10.68;;;;;;;7.69;45.36;101864.50;5103806;28;20044;-62
2022/03/04 03:49:21;;;;;;;22.50;11.30;;;;;;;7.66;44.91;101870.22;5098708;28;20291;-62
2022/03/04 03:51:48;;;;;;;20.10;11.85;;;;;;;7.67;45.09;101878.06;5096738;28;20076;-62
2022/03/04 03:54:16;;;;;;;15.40;10.73;;;;;;;7.65;44.98;101874.72;5099669;28;20087;-62
2022/03/04 03:56:44;;;;;;;16.63;10.32;;;;;;;7.62;45.12;101875.09;5101536;28;20158;-62
2022/03/04 03:59:12;;;;;;;18.65;11.30;;;;;;;7.60;45.45;101871.75;5094790;28;20072;-62
2022/03/04 04:01:40;;;;;;;18.85;11.48;;;;;;;7.59;45.67;101858.56;5101070;28;20079;-63
2022/03/04 04:04:09;;;;;;;18.23;11.45;;;;;;;7.55;45.18;101867.94;5103534;28;20750;-62
2022/03/04 04:06:39;;;;;;;19.45;11.73;;;;;;;7.58;45.26;101875.63;5101851;28;20072;-61
2022/03/04 04:09:08;;;;;;;16.88;10.07;;;;;;;7.55;45.27;101871.44;5101781;28;20040;-62
2022/03/04 04:11:36;;;;;;;17.52;10.70;;;;;;;7.54;45.04;101875.13;5103702;28;20428;-62
2022/03/04 04:14:04;;;;;;;21.23;11.52;;;;;;;7.54;44.85;101877.81;5102942;28;20503;-62
2022/03/04 04:16:32;;;;;;;16.35;11.10;;;;;;;7.51;44.92;101878.16;5096669;28;20079;-61
2022/03/04 04:19:01;;;;;;;17.45;11.77;;;;;;;7.51;44.77;101886.19;5096985;28;20063;-61
2022/03/04 04:21:29;;;;;;;19.75;10.77;;;;;;;7.45;45.28;101879.69;5095545;28;20076;-61
2022/03/04 04:23:58;;;;;;;16.60;10.52;;;;;;;7.48;45.07;101895.41;5096849;28;20446;-62
2022/03/04 04:26:26;;;;;;;18.05;10.88;;;;;;;7.47;45.52;101890.22;5101685;28;20135;-62
2022/03/04 04:28:54;;;;;;;19.27;11.90;;;;;;;7.44;45.05;101882.53;5102072;28;20059;-62
2022/03/04 04:31:22;;;;;;;25.83;10.65;;;;;;;7.45;45.39;101886.88;5094757;28;20048;-62
2022/03/04 04:33:51;;;;;;;17.02;11.52;;;;;;;7.42;45.03;101890.75;5097617;28;20044;-62
2022/03/04 04:36:19;;;;;;;18.75;12.25;;;;;;;7.41;44.84;101890.94;5101214;28;20135;-62
2022/03/04 04:38:46;;;;;;;19.20;11.82;;;;;;;7.36;45.39;101891.44;5101064;28;20036;-62
2022/03/04 04:41:16;;;;;;;19.38;12.52;;;;;;;7.38;45.46;101891.28;5095214;28;20071;-63
2022/03/04 04:43:43;;;;;;;17.90;11.73;;;;;;;7.37;45.18;101898.47;5102391;28;20039;-61
2022/03/04 04:46:11;;;;;;;17.13;11.50;;;;;;;7.36;45.42;101891.44;5102648;28;20107;-61
2022/03/04 04:48:40;;;;;;;18.40;10.50;;;;;;;7.34;45.28;101896.13;5099359;28;20047;-62
2022/03/04 04:51:08;;;;;;;17.27;11.20;;;;;;;7.30;45.25;101891.31;5101643;28;20416;-62
2022/03/04 04:53:38;;;;;;;19.27;12.23;;;;;;;7.31;45.22;101901.84;5092902;28;20098;-62
2022/03/04 04:56:06;;;;;;;21.48;12.48;;;;;;;7.31;45.39;101904.50;5102962;28;20055;-62
2022/03/04 04:58:35;;;;;;;19.02;11.20;;;;;;;7.31;45.63;101898.31;5099750;28;20040;-62
2022/03/04 05:01:03;;;;;;;17.15;11.13;;;;;;;7.29;45.27;101903.84;5100374;28;20055;-62
2022/03/04 05:03:32;;;;;;;17.42;11.15;;;;;;;7.29;45.26;101900.34;5102308;28;20048;-62
2022/03/04 05:05:59;;;;;;;17.52;11.60;;;;;;;7.26;45.59;101890.84;5100102;28;20052;-63
2022/03/04 05:08:27;;;;;;;17.85;11.45;;;;;;;7.28;45.63;101901.34;5098444;28;20126;-62
2022/03/04 05:10:56;;;;;;;17.88;11.73;;;;;;;7.24;45.80;101887.50;5101858;28;20048;-63
2022/03/04 05:13:24;;;;;;;20.38;11.65;;;;;;;7.23;45.76;101885.84;5099127;28;20086;-63
2022/03/04 05:15:54;;;;;;;20.73;12.70;;;;;;;7.22;45.46;101889.50;5101964;28;20040;-63
2022/03/04 05:18:22;;;;;;;19.38;10.90;;;;;;;7.10;45.47;101875.69;5092783;28;20147;-62
2022/03/04 05:20:49;;;;;;;20.65;11.68;;;;;;;7.23;45.69;101896.53;5102169;28;20075;-62
2022/03/04 05:25:59;;;;;;;18.48;11.65;;;;;;;7.19;45.54;101903.22;5097817;28;20531;-63
2022/03/04 05:28:26;;;;;;;19.45;11.18;;;;;;;7.18;45.47;101902.41;5096424;28;21935;-63
2022/03/04 05:30:56;;;;;;;21.95;11.35;;;;;;;7.17;45.65;101894.56;5101563;28;20107;-62
2022/03/04 05:33:24;;;;;;;18.55;11.70;;;;;;;7.15;45.61;101894.72;5101869;28;20055;-63
2022/03/04 05:35:51;;;;;;;19.42;11.60;;;;;;;7.15;45.51;101904.56;5101599;28;20059;-62
2022/03/04 05:38:19;;;;;;;19.45;11.68;;;;;;;7.14;45.85;101902.91;5099122;28;20086;-62
2022/03/04 05:40:47;;;;;;;18.58;12.05;;;;;;;7.11;45.72;101906.78;5102294;28;20040;-62
2022/03/04 05:43:14;;;;;;;17.45;11.65;;;;;;;7.11;45.43;101916.63;5099430;28;20044;-63
2022/03/04 05:45:42;;;;;;;19.63;11.50;;;;;;;7.11;45.66;101905.94;5098660;28;20043;-62
2022/03/04 05:48:11;;;;;;;19.95;11.27;;;;;;;7.10;45.69;101918.47;5098676;28;20580;-62
2022/03/04 05:50:39;;;;;;;18.95;11.57;;;;;;;7.05;45.41;101904.78;5100087;28;20075;-62
2022/03/04 05:53:07;;;;;;;20.63;12.00;;;;;;;7.07;45.84;101913.47;5098674;28;20426;-63
2022/03/04 05:55:34;;;;;;;18.75;11.25;;;;;;;7.08;45.80;101922.31;5099301;28;20075;-63
2022/03/04 05:58:02;;;;;;;19.70;11.57;;;;;;;7.08;45.70;101930.34;5100672;28;20078;-63
2022/03/04 06:00:30;;;;;;;17.40;11.02;;;;;;;7.07;46.02;101934.00;5101073;28;20055;-62
2022/03/04 06:02:58;;;;;;;18.73;11.95;;;;;;;7.08;45.68;101938.34;5092988;28;20040;-63
2022/03/04 06:05:27;;;;;;;24.65;12.32;;;;;;;7.19;45.48;101943.34;5100620;28;20081;-63
2022/03/04 06:07:55;;;;;;;22.38;12.30;;;;;;;7.33;45.40;101942.59;5099153;28;20067;-62
2022/03/04 06:10:22;;;;;;;17.10;11.48;;;;;;;7.45;44.70;101937.72;5093744;28;20068;-62
2022/03/04 06:12:50;;;;;;;19.33;11.52;;;;;;;7.58;44.43;101948.69;5096337;28;20106;-61
2022/03/04 06:15:18;;;;;;;18.42;12.70;;;;;;;7.72;44.36;101945.25;5098704;28;20056;-62
2022/03/04 06:17:47;;;;;;;20.92;11.85;;;;;;;7.81;43.56;101938.00;5094623;28;20083;-58
2022/03/04 06:20:14;;;;;;;18.20;11.40;;;;;;;7.95;44.27;101941.78;5095687;28;20040;-61
2022/03/04 06:22:44;;;;;;;18.70;11.85;;;;;;;8.10;43.42;101940.00;5100343;28;20496;-62
2022/03/04 06:25:14;;;;;;;17.23;11.18;;;;;;;8.20;43.21;101945.94;5097102;28;20067;-61
2022/03/04 06:27:53;;;;;;;23.13;12.27;;;;;;;8.29;42.78;101941.34;5104052;28;20056;-62
2022/03/04 06:30:21;;;;;;;17.83;11.80;;;;;;;8.37;42.98;101949.34;5098596;28;20170;-62
2022/03/04 06:32:49;;;;;;;16.05;10.70;;;;;;;8.37;42.31;101947.50;5105322;28;20048;-62
2022/03/04 06:35:17;;;;;;;18.30;10.68;;;;;;;8.22;43.36;101943.91;5103800;28;20087;-61
2022/03/04 06:37:46;;;;;;;17.25;11.82;;;;;;;8.06;43.21;101942.19;5104494;28;20052;-62
2022/03/04 06:40:14;;;;;;;20.40;11.70;;;;;;;7.96;44.08;101954.16;5104359;28;20039;-62
2022/03/04 06:42:45;;;;;;;16.38;10.88;;;;;;;7.82;43.50;101953.06;5102141;28;20056;-62
2022/03/04 06:45:13;;;;;;;17.38;11.05;;;;;;;7.72;44.26;101958.63;5100006;28;20056;-62
2022/03/04 06:47:40;;;;;;;19.05;11.25;;;;;;;7.63;43.94;101962.34;5103554;28;20507;-63
2022/03/04 06:50:08;;;;;;;16.63;11.77;;;;;;;7.53;44.71;101958.22;5104883;28;20147;-61
2022/03/04 06:52:36;;;;;;;22.02;12.25;;;;;;;7.46;44.84;101960.78;5096338;28;20072;-59
2022/03/04 06:55:06;;;;;;;17.70;11.80;;;;;;;7.43;44.54;101971.81;5105622;28;20100;-62
2022/03/04 06:57:34;;;;;;;19.63;12.25;;;;;;;7.36;44.87;101970.84;5102663;28;20048;-62
2022/03/04 07:00:03;;;;;;;17.40;11.43;;;;;;;7.25;45.05;101961.34;5092561;28;20045;-61
2022/03/04 07:02:31;;;;;;;17.98;11.05;;;;;;;7.35;44.80;101972.69;5104341;28;20149;-61
2022/03/04 07:04:59;;;;;;;16.15;10.93;;;;;;;7.49;44.59;101979.16;5098710;28;20408;-61
2022/03/04 07:07:27;;;;;;;19.65;11.82;;;;;;;7.57;44.87;101980.94;5102626;28;20044;-61
2022/03/04 07:09:55;;;;;;;17.80;10.88;;;;;;;7.60;44.67;101984.13;5098436;28;20052;-61
2022/03/04 07:12:24;;;;;;;17.75;11.77;;;;;;;7.75;44.19;101995.75;5095988;28;20090;-62
2022/03/04 07:14:51;;;;;;;17.48;11.55;;;;;;;7.81;44.19;101992.38;5104089;28;20079;-65
2022/03/04 07:17:19;;;;;;;19.30;11.77;;;;;;;7.98;43.77;101995.78;5098876;28;20143;-62
2022/03/04 07:19:47;;;;;;;15.18;11.20;;;;;;;8.12;42.88;102000.38;5098175;28;20075;-62
2022/03/04 07:22:15;;;;;;;16.25;10.75;;;;;;;8.25;42.76;102001.63;5102895;28;20056;-63
2022/03/04 07:24:42;;;;;;;18.77;11.60;;;;;;;8.36;42.93;102011.97;5102237;28;20044;-61
2022/03/04 07:27:10;;;;;;;22.63;11.70;;;;;;;8.50;42.65;102010.34;5100013;28;20072;-60
2022/03/04 07:29:39;;;;;;;20.85;11.90;;;;;;;8.37;42.44;102011.78;5102430;28;20364;-60
2022/03/04 07:32:08;;;;;;;18.33;11.75;;;;;;;8.06;43.11;102010.97;5102603;28;20071;-61
2022/03/04 07:34:35;;;;;;;22.13;12.55;;;;;;;8.02;42.98;102012.31;5101518;28;20052;-61
2022/03/04 07:37:03;;;;;;;19.27;12.63;;;;;;;7.95;43.37;102003.34;5101705;28;20044;-60
2022/03/04 07:39:31;;;;;;;22.60;11.98;;;;;;;7.86;43.96;102010.56;5092045;28;20051;-60
2022/03/04 07:42:01;;;;;;;22.80;12.20;;;;;;;7.79;44.10;102006.94;5102111;28;20079;-61
2022/03/04 07:44:29;;;;;;;20.98;12.93;;;;;;;7.72;43.91;102005.97;5103431;28;20158;-60
2022/03/04 07:46:58;;;;;;;17.98;11.18;;;;;;;7.63;44.54;102009.69;5101864;28;20147;-60
2022/03/04 07:49:26;;;;;;;22.65;13.00;;;;;;;7.57;44.42;102005.84;5103751;28;20048;-61
2022/03/04 07:51:54;;;;;;;21.90;12.82;;;;;;;7.51;44.95;102002.03;5100022;28;20075;-61
2022/03/04 07:54:21;;;;;;;18.60;12.02;;;;;;;7.47;44.73;102005.22;5103025;28;20044;-61
2022/03/04 07:56:49;;;;;;;19.73;12.38;;;;;;;7.43;44.66;102003.91;5103926;28;20052;-60
2022/03/04 07:59:17;;;;;;;18.83;11.80;;;;;;;7.38;44.89;102011.63;5103671;28;20096;-61
2022/03/04 08:01:45;;;;;;;20.50;12.45;;;;;;;7.32;44.99;102007.78;5092781;28;20099;-61
2022/03/04 08:04:14;;;;;;;19.58;12.13;;;;;;;7.29;45.46;102015.31;5103538;28;20070;-61
2022/03/04 08:06:42;;;;;;;20.80;11.98;;;;;;;7.26;45.09;102021.84;5100637;28;20044;-60
2022/03/04 08:09:09;;;;;;;18.48;11.85;;;;;;;7.23;45.15;102030.22;5102257;28;20442;-60
2022/03/04 08:11:40;;;;;;;16.90;11.43;;;;;;;7.23;45.23;102029.38;5096818;28;20071;-61
2022/03/04 08:14:08;;;;;;;20.13;12.48;;;;;;;7.17;45.23;102023.72;5101980;28;20048;-60
2022/03/04 08:16:36;;;;;;;16.85;11.18;;;;;;;7.16;45.59;102022.03;5102961;28;20092;-60
2022/03/04 08:19:05;;;;;;;18.40;11.73;;;;;;;7.13;45.80;102025.03;5093097;28;20071;-60
2022/03/04 08:21:34;;;;;;;21.25;12.23;;;;;;;7.12;45.75;102030.56;5102505;28;20051;-60
2022/03/04 08:24:02;;;;;;;23.35;12.82;;;;;;;7.11;46.14;102042.25;5099742;28;20063;-60
2022/03/04 08:26:29;;;;;;;23.42;11.60;;;;;;;7.06;45.58;102031.25;5096688;28;20109;-60
2022/03/04 08:29:00;;;;;;;20.42;12.15;;;;;;;7.07;46.10;102033.75;5102704;28;20103;-60
2022/03/04 08:31:28;;;;;;;24.17;13.60;;;;;;;7.06;46.11;102034.75;5102613;28;20044;-60
2022/03/04 08:33:56;;;;;;;25.52;13.68;;;;;;;7.05;45.86;102027.75;5101438;28;20047;-61
2022/03/04 08:36:24;;;;;;;18.85;12.10;;;;;;;7.04;46.11;102039.44;5101897;28;20099;-60
2022/03/04 08:38:53;;;;;;;21.27;12.90;;;;;;;7.03;46.07;102035.09;5091464;28;20089;-60
2022/03/04 08:41:21;;;;;;;21.42;12.73;;;;;;;7.04;46.29;102038.59;5102374;28;20039;-62
2022/03/04 08:43:51;;;;;;;18.40;12.20;;;;;;;7.06;45.75;102032.06;5097405;28;20055;-60
2022/03/04 08:46:19;;;;;;;20.75;11.77;;;;;;;7.31;45.53;102043.56;5101522;28;20112;-60
2022/03/04 08:48:47;;;;;;;17.80;11.27;;;;;;;7.46;45.23;102047.19;5098598;28;20086;-59
2022/03/04 08:51:14;;;;;;;18.77;11.32;;;;;;;7.64;45.05;102051.47;5099988;28;20070;-59
2022/03/04 08:53:42;;;;;;;18.65;11.10;;;;;;;7.85;44.67;102057.09;5101002;28;20508;-62
2022/03/04 08:56:11;;;;;;;17.95;11.27;;;;;;;8.02;44.27;102049.81;5102406;28;20079;-62
2022/03/04 08:58:39;;;;;;;19.85;11.65;;;;;;;8.16;43.83;102055.25;5101555;28;20051;-61
2022/03/04 09:01:07;;;;;;;21.50;12.30;;;;;;;8.25;43.37;102056.03;5097433;28;20082;-60
2022/03/04 09:03:35;;;;;;;18.58;11.15;;;;;;;8.27;43.71;102054.00;5102017;28;20112;-60
2022/03/04 09:06:03;;;;;;;18.95;11.27;;;;;;;8.22;44.24;102053.72;5099932;28;20071;-60
2022/03/04 09:08:31;;;;;;;19.70;11.25;;;;;;;8.00;44.30;102025.88;5096646;28;20461;-60
2022/03/04 09:10:59;;;;;;;16.70;11.35;;;;;;;8.03;44.79;102051.47;5100336;28;20048;-60
2022/03/04 09:13:28;;;;;;;22.30;11.50;;;;;;;7.95;45.26;102054.19;5101822;28;20055;-60
2022/03/04 09:15:56;;;;;;;20.77;12.00;;;;;;;7.87;45.25;102054.22;5100552;28;20064;-60
2022/03/04 09:18:24;;;;;;;17.70;11.23;;;;;;;7.83;45.72;102048.38;5098876;28;20115;-60
2022/03/04 09:20:52;;;;;;;22.23;11.98;;;;;;;7.80;45.36;102062.97;5100751;28;20074;-61
2022/03/04 09:23:20;;;;;;;17.15;11.35;;;;;;;7.76;45.40;102058.97;5097571;28;20075;-64
2022/03/04 09:25:48;;;;;;;21.50;12.52;;;;;;;7.72;45.52;102059.47;5092399;28;20462;-63
2022/03/04 09:28:17;;;;;;;18.40;11.00;;;;;;;7.69;45.91;102046.44;5099568;28;20059;-63
2022/03/04 09:30:46;;;;;;;17.40;11.77;;;;;;;7.70;46.17;102050.78;5097288;28;20071;-62
2022/03/04 09:33:14;;;;;;;18.50;11.02;;;;;;;7.68;46.58;102053.63;5091818;28;20063;-63
2022/03/04 09:35:41;;;;;;;17.95;11.32;;;;;;;7.67;46.76;102043.94;5099921;28;20430;-66
2022/03/04 09:38:09;;;;;;;18.25;12.07;;;;;;;7.64;46.18;102040.78;5099346;28;20084;-63
2022/03/04 09:40:38;;;;;;;21.42;12.48;;;;;;;7.62;46.53;102040.13;5101145;28;20087;-64
2022/03/04 09:43:07;;;;;;;19.02;11.48;;;;;;;7.63;46.94;102039.13;5100058;28;20112;-63
2022/03/04 09:45:35;;;;;;;18.15;10.90;;;;;;;7.64;46.72;102036.25;5096486;28;20048;-61
2022/03/04 09:48:05;;;;;;;19.35;11.35;;;;;;;7.66;47.14;102028.91;5096203;28;20045;-59
2022/03/04 09:50:34;;;;;;;19.00;11.00;;;;;;;7.67;47.30;102032.41;5097337;28;20087;-59
2022/03/04 09:53:08;;;;;;;21.17;10.60;;;;;;;7.67;47.11;102035.91;5094920;28;20060;-60
2022/03/04 09:55:37;;;;;;;16.80;10.90;;;;;;;7.64;47.91;102030.91;5092325;28;20452;-60
2022/03/04 09:58:09;;;;;;;16.38;10.60;;;;;;;7.69;47.70;102031.22;5097282;28;20048;-59
2022/03/04 10:00:37;;;;;;;20.27;10.30;;;;;;;7.71;47.94;102037.25;5096947;28;20048;-59
2022/03/04 10:03:12;;;;;;;17.33;11.13;;;;;;;7.74;47.79;102041.41;5103282;28;20048;-60
2022/03/04 10:05:51;;;;;;;20.02;11.25;;;;;;;7.74;47.96;102047.59;5094578;28;20044;-60
2022/03/04 10:08:19;;;;;;;19.42;11.75;;;;;;;7.77;48.04;102046.41;5090953;28;20055;-61
2022/03/04 10:10:50;;;;;;;25.83;12.20;;;;;;;7.80;48.28;102040.72;5106032;28;20048;-60
2022/03/04 10:13:19;;;;;;;19.00;11.90;;;;;;;7.79;47.72;102034.53;5097427;28;20045;-60
2022/03/04 10:15:56;;;;;;;16.58;10.98;;;;;;;7.81;48.90;102039.69;5100427;28;20044;-60
2022/03/04 10:18:29;;;;;;;17.55;11.20;;;;;;;7.82;48.44;102036.84;5100189;28;20094;-59
2022/03/04 10:20:57;;;;;;;19.98;11.38;;;;;;;7.86;48.32;102033.81;5103200;28;20061;-60
2022/03/04 10:23:27;;;;;;;17.13;11.38;;;;;;;7.82;47.78;102020.78;5104666;28;20131;-60
2022/03/04 10:25:57;;;;;;;21.45;11.45;;;;;;;7.90;48.18;102035.16;5104801;28;20066;-61
2022/03/04 10:28:27;;;;;;;22.33;12.07;;;;;;;7.91;47.86;102042.16;5091648;28;20037;-60
2022/03/04 10:30:58;;;;;;;17.45;10.88;;;;;;;7.92;48.41;102041.16;5105186;28;20040;-60
2022/03/04 10:33:47;;;;;;;18.58;10.93;;;;;;;7.96;48.84;102035.28;5105370;28;20044;-60
2022/03/04 10:36:16;;;;;;;18.58;9.95;;;;;;;7.98;48.96;102048.50;5103277;28;20081;-60
2022/03/04 10:38:43;;;;;;;18.50;10.88;;;;;;;8.02;48.86;102050.63;5093720;28;20079;-60
2022/03/04 10:41:21;;;;;;;15.80;10.43;;;;;;;8.05;48.70;102042.25;5103560;28;20517;-60
2022/03/04 10:43:49;;;;;;;17.20;10.50;;;;;;;8.08;49.13;102039.22;5104995;28;20082;-60
2022/03/04 10:46:17;;;;;;;18.60;11.23;;;;;;;8.05;48.80;102026.19;5104868;28;20333;-60
2022/03/04 10:48:54;;;;;;;15.90;9.82;;;;;;;8.11;48.40;102030.00;5099663;28;20054;-60
2022/03/04 10:51:37;;;;;;;17.45;10.68;;;;;;;8.19;48.42;102035.31;5102523;28;20087;-61
2022/03/04 10:54:13;;;;;;;19.58;10.65;;;;;;;8.22;49.01;102036.81;5100600;28;20439;-59
2022/03/04 10:56:51;;;;;;;18.58;11.18;;;;;;;8.19;48.51;102027.28;5104974;28;20052;-60
2022/03/04 10:59:20;;;;;;;19.88;11.18;;;;;;;8.20;48.74;102025.44;5091041;28;20059;-59
2022/03/04 11:01:48;;;;;;;17.88;9.45;;;;;;;8.34;48.49;102032.75;5104980;28;20091;-59
2022/03/04 11:04:19;;;;;;;16.38;9.85;;;;;;;8.40;48.82;102032.03;5103964;28;20078;-61
2022/03/04 11:06:49;;;;;;;15.07;10.35;;;;;;;8.48;49.13;102027.44;5103954;28;20059;-59
2022/03/04 11:09:23;;;;;;;17.80;9.90;;;;;;;8.53;48.70;102026.91;5092672;28;20044;-59
2022/03/04 11:11:52;;;;;;;14.23;9.32;;;;;;;8.60;49.08;102021.66;5095949;28;20044;-59
2022/03/04 11:14:22;;;;;;;15.75;10.68;;;;;;;8.65;48.72;102027.31;5104199;28;20363;-59
2022/03/04 11:16:50;;;;;;;16.30;10.45;;;;;;;8.68;48.60;102021.56;5102876;28;20048;-60
2022/03/04 11:19:20;;;;;;;15.88;10.70;;;;;;;8.71;48.47;102014.00;5095951;28;20077;-60
2022/03/04 11:21:48;;;;;;;16.50;10.10;;;;;;;8.74;48.66;102013.63;5096788;28;20044;-59
2022/03/04 11:24:15;;;;;;;18.65;10.45;;;;;;;8.76;49.15;102013.44;5103237;28;20095;-59
2022/03/04 11:26:44;;;;;;;17.75;10.13;;;;;;;8.68;49.39;101981.38;5104031;28;20088;-59
2022/03/04 11:29:33;;;;;;;15.68;9.57;;;;;;;8.84;48.82;101999.97;5103951;28;20079;-59